createdAt,value
2019-03-13T00:00:57.227Z,7.40
2019-03-13T00:02:11.775Z,7.50
2019-03-13T00:03:16.500Z,7.50
2019-03-13T00:04:21.175Z,7.60
2019-03-13T00:05:25.952Z,7.60
2019-03-13T00:06:30.695Z,7.70
2019-03-13T00:07:36.097Z,7.70
2019-03-13T00:08:43.648Z,7.80
2019-03-13T00:09:49.116Z,7.80
2019-03-13T00:10:53.720Z,7.80
2019-03-13T00:11:58.292Z,7.90
2019-03-13T00:13:03.365Z,7.90
2019-03-13T00:14:08.066Z,7.90
2019-03-13T00:15:13.444Z,7.90
2019-03-13T00:16:18.265Z,8.00
2019-03-13T00:17:22.903Z,8.00
2019-03-13T00:18:27.552Z,8.00
2019-03-13T00:19:32.339Z,8.00
2019-03-13T00:20:39.662Z,8.00
2019-03-13T00:21:44.231Z,8.00
2019-03-13T00:22:48.823Z,8.00
2019-03-13T00:23:53.398Z,8.00
2019-03-13T00:24:58.009Z,8.00
2019-03-13T00:26:02.567Z,8.00
2019-03-13T00:27:07.202Z,8.00
2019-03-13T00:28:11.750Z,8.00
2019-03-13T00:29:16.386Z,8.00
2019-03-13T00:30:21.042Z,8.00
2019-03-13T00:31:25.617Z,8.00
2019-03-13T00:32:30.171Z,8.00
2019-03-13T00:33:34.787Z,8.00
2019-03-13T00:34:39.389Z,8.00
2019-03-13T00:35:43.992Z,8.00
2019-03-13T00:36:48.604Z,8.00
2019-03-13T00:37:53.196Z,8.00
2019-03-13T00:38:57.789Z,8.00
2019-03-13T00:40:02.400Z,8.00
2019-03-13T00:41:07.006Z,8.00
2019-03-13T00:42:11.582Z,8.00
2019-03-13T00:43:16.163Z,8.00
2019-03-13T00:44:20.724Z,8.00
2019-03-13T00:45:25.300Z,8.00
2019-03-13T00:46:29.903Z,8.00
2019-03-13T00:47:34.463Z,8.00
2019-03-13T00:48:39.077Z,8.10
2019-03-13T00:49:43.679Z,8.10
2019-03-13T00:50:48.299Z,8.10
2019-03-13T00:51:52.916Z,8.10
2019-03-13T00:52:57.739Z,8.10
2019-03-13T00:54:02.412Z,8.20
2019-03-13T00:55:07.178Z,8.20
2019-03-13T00:56:11.758Z,8.20
2019-03-13T00:57:16.355Z,8.20
2019-03-13T00:58:20.963Z,8.20
2019-03-13T00:59:25.554Z,8.20
2019-03-13T01:00:43.527Z,8.20
2019-03-13T01:01:59.941Z,8.20
2019-03-13T01:03:05.013Z,8.20
2019-03-13T01:04:16.944Z,8.20
2019-03-13T01:05:26.214Z,8.20
2019-03-13T01:06:34.237Z,8.20
2019-03-13T01:07:38.959Z,8.20
2019-03-13T01:08:43.566Z,8.20
2019-03-13T01:09:48.228Z,8.20
2019-03-13T01:10:52.780Z,8.20
2019-03-13T01:11:57.424Z,8.20
2019-03-13T01:13:03.141Z,8.20
2019-03-13T01:14:07.770Z,8.20
2019-03-13T01:15:13.551Z,8.20
2019-03-13T01:16:18.137Z,8.30
2019-03-13T01:17:22.741Z,8.20
2019-03-13T01:18:27.327Z,8.30
2019-03-13T01:19:32.016Z,8.20
2019-03-13T01:20:37.580Z,8.20
2019-03-13T01:21:42.171Z,8.20
2019-03-13T01:22:46.741Z,8.20
2019-03-13T01:23:51.300Z,8.20
2019-03-13T01:24:55.962Z,8.20
2019-03-13T01:26:00.530Z,8.20
2019-03-13T01:27:05.100Z,8.20
2019-03-13T01:28:09.659Z,8.20
2019-03-13T01:29:14.292Z,8.20
2019-03-13T01:30:18.980Z,8.20
2019-03-13T01:31:36.347Z,8.20
2019-03-13T01:32:48.037Z,8.20
2019-03-13T01:33:56.280Z,8.20
2019-03-13T01:35:05.611Z,8.20
2019-03-13T01:36:10.203Z,8.20
2019-03-13T01:37:14.792Z,8.10
2019-03-13T01:38:19.387Z,8.10
2019-03-13T01:39:23.958Z,8.10
2019-03-13T01:40:28.516Z,8.10
2019-03-13T01:41:33.094Z,8.10
2019-03-13T01:42:37.699Z,8.10
2019-03-13T01:43:42.273Z,8.10
2019-03-13T01:44:46.945Z,8.10
2019-03-13T01:45:51.506Z,8.00
2019-03-13T01:46:56.117Z,8.00
2019-03-13T01:48:00.712Z,8.00
2019-03-13T01:49:05.337Z,8.00
2019-03-13T01:50:10.017Z,8.00
2019-03-13T01:51:14.564Z,7.90
2019-03-13T01:52:19.144Z,7.90
2019-03-13T01:53:23.724Z,7.90
2019-03-13T01:54:28.371Z,7.80
2019-03-13T01:55:32.983Z,7.80
2019-03-13T01:56:37.547Z,7.80
2019-03-13T01:57:42.172Z,7.80
2019-03-13T01:58:46.750Z,7.80
2019-03-13T01:59:51.363Z,7.80
2019-03-13T02:00:57.019Z,7.70
2019-03-13T02:02:01.708Z,7.70
2019-03-13T02:03:07.240Z,7.70
2019-03-13T02:04:12.002Z,7.70
2019-03-13T02:05:16.847Z,7.70
2019-03-13T02:06:21.440Z,7.70
2019-03-13T02:07:26.087Z,7.60
2019-03-13T02:08:30.720Z,7.60
2019-03-13T02:09:35.274Z,7.60
2019-03-13T02:10:39.917Z,7.50
2019-03-13T02:11:44.480Z,7.50
2019-03-13T02:12:49.099Z,7.40
2019-03-13T02:13:53.691Z,7.30
2019-03-13T02:14:58.285Z,7.30
2019-03-13T02:16:02.871Z,7.20
2019-03-13T02:17:07.542Z,7.10
2019-03-13T02:18:12.153Z,7.10
2019-03-13T02:19:16.833Z,7.10
2019-03-13T02:20:21.505Z,7.00
2019-03-13T02:21:26.149Z,7.00
2019-03-13T02:22:30.933Z,6.90
2019-03-13T02:23:35.511Z,6.90
2019-03-13T02:24:40.262Z,6.90
2019-03-13T02:25:44.839Z,6.80
2019-03-13T02:26:49.424Z,6.80
2019-03-13T02:27:54.000Z,6.80
2019-03-13T02:28:58.549Z,6.80
2019-03-13T02:30:03.221Z,6.70
2019-03-13T02:31:08.143Z,6.70
2019-03-13T02:32:12.718Z,6.60
2019-03-13T02:33:17.338Z,6.60
2019-03-13T02:34:22.394Z,6.50
2019-03-13T02:35:27.317Z,6.50
2019-03-13T02:36:31.888Z,6.40
2019-03-13T02:37:36.585Z,6.40
2019-03-13T02:38:41.375Z,6.30
2019-03-13T02:39:47.110Z,6.30
2019-03-13T02:40:51.749Z,6.30
2019-03-13T02:41:56.345Z,6.20
2019-03-13T02:43:01.262Z,6.20
2019-03-13T02:44:05.918Z,6.10
2019-03-13T02:45:10.649Z,6.10
2019-03-13T02:46:15.243Z,6.10
2019-03-13T02:47:20.003Z,6.10
2019-03-13T02:48:24.716Z,6.00
2019-03-13T02:49:29.305Z,6.00
2019-03-13T02:50:33.855Z,6.00
2019-03-13T02:51:38.473Z,6.00
2019-03-13T02:52:43.063Z,6.00
2019-03-13T02:53:47.656Z,6.00
2019-03-13T02:54:52.238Z,6.00
2019-03-13T02:55:56.823Z,5.90
2019-03-13T02:57:01.547Z,5.90
2019-03-13T02:58:06.144Z,5.90
2019-03-13T02:59:10.727Z,5.90
2019-03-13T03:00:16.942Z,5.90
2019-03-13T03:01:25.997Z,5.90
2019-03-13T03:02:43.480Z,5.90
2019-03-13T03:03:51.344Z,5.90
2019-03-13T03:04:56.808Z,5.90
2019-03-13T03:06:01.657Z,5.90
2019-03-13T03:07:06.240Z,5.90
2019-03-13T03:08:10.864Z,5.90
2019-03-13T03:09:15.542Z,5.90
2019-03-13T03:10:20.268Z,5.90
2019-03-13T03:11:24.920Z,5.90
2019-03-13T03:12:29.599Z,5.90
2019-03-13T03:13:34.184Z,5.90
2019-03-13T03:14:39.138Z,5.90
2019-03-13T03:15:44.721Z,5.90
2019-03-13T03:16:49.434Z,5.90
2019-03-13T03:17:54.118Z,5.90
2019-03-13T03:18:58.703Z,5.90
2019-03-13T03:20:03.680Z,5.90
2019-03-13T03:21:08.673Z,5.90
2019-03-13T03:22:18.132Z,5.90
2019-03-13T03:23:22.775Z,5.90
2019-03-13T03:24:27.425Z,5.90
2019-03-13T03:25:31.974Z,5.90
2019-03-13T03:26:36.611Z,5.90
2019-03-13T03:27:41.254Z,5.90
2019-03-13T03:28:46.961Z,5.90
2019-03-13T03:29:51.593Z,5.90
2019-03-13T03:30:56.168Z,5.90
2019-03-13T03:32:00.774Z,5.90
2019-03-13T03:33:05.423Z,5.90
2019-03-13T03:34:10.084Z,5.90
2019-03-13T03:35:14.700Z,5.90
2019-03-13T03:36:19.468Z,5.90
2019-03-13T03:37:24.146Z,5.90
2019-03-13T03:38:28.851Z,5.90
2019-03-13T03:39:33.454Z,5.90
2019-03-13T03:40:38.052Z,5.90
2019-03-13T03:41:42.730Z,5.90
2019-03-13T03:42:47.389Z,5.90
2019-03-13T03:43:53.090Z,5.90
2019-03-13T03:45:03.643Z,5.90
2019-03-13T03:46:08.229Z,5.90
2019-03-13T03:47:12.800Z,5.90
2019-03-13T03:48:17.396Z,5.90
2019-03-13T03:49:22.009Z,6.00
2019-03-13T03:50:26.625Z,6.00
2019-03-13T03:51:31.192Z,6.00
2019-03-13T03:52:35.755Z,6.00
2019-03-13T03:53:40.708Z,6.00
2019-03-13T03:54:45.592Z,6.10
2019-03-13T03:55:50.481Z,6.10
2019-03-13T03:56:55.383Z,6.10
2019-03-13T03:58:00.210Z,6.10
2019-03-13T03:59:05.275Z,6.20
2019-03-13T04:00:10.590Z,6.20
2019-03-13T04:01:15.627Z,6.20
2019-03-13T04:02:20.459Z,6.20
2019-03-13T04:03:25.557Z,6.20
2019-03-13T04:04:30.506Z,6.10
2019-03-13T04:05:35.695Z,6.20
2019-03-13T04:06:40.536Z,6.20
2019-03-13T04:07:45.622Z,6.20
2019-03-13T04:08:50.274Z,6.20
2019-03-13T04:09:54.981Z,6.20
2019-03-13T04:10:59.794Z,6.20
2019-03-13T04:12:04.759Z,6.20
2019-03-13T04:13:09.645Z,6.20
2019-03-13T04:14:14.488Z,6.10
2019-03-13T04:15:19.431Z,6.10
2019-03-13T04:16:24.348Z,6.10
2019-03-13T04:17:29.365Z,6.10
2019-03-13T04:18:34.254Z,6.10
2019-03-13T04:19:39.187Z,6.10
2019-03-13T04:20:45.033Z,6.10
2019-03-13T04:21:49.902Z,6.10
2019-03-13T04:22:54.796Z,6.10
2019-03-13T04:23:59.574Z,6.10
2019-03-13T04:25:30.654Z,6.10
2019-03-13T04:26:35.730Z,6.10
2019-03-13T04:27:41.922Z,6.10
2019-03-13T04:28:46.835Z,6.10
2019-03-13T04:29:51.730Z,6.10
2019-03-13T04:30:56.744Z,6.10
2019-03-13T04:32:01.804Z,6.10
2019-03-13T04:33:07.804Z,6.10
2019-03-13T04:34:12.814Z,6.10
2019-03-13T04:35:17.491Z,6.10
2019-03-13T04:36:22.214Z,6.00
2019-03-13T04:37:26.898Z,6.10
2019-03-13T04:38:31.459Z,6.10
2019-03-13T04:39:36.048Z,6.00
2019-03-13T04:40:40.644Z,6.10
2019-03-13T04:41:45.485Z,6.10
2019-03-13T04:42:50.978Z,6.10
2019-03-13T04:43:56.063Z,6.10
2019-03-13T04:45:00.947Z,6.10
2019-03-13T04:46:07.182Z,6.00
2019-03-13T04:47:12.157Z,6.00
2019-03-13T04:48:17.079Z,6.00
2019-03-13T04:49:23.066Z,6.00
2019-03-13T04:50:27.679Z,6.00
2019-03-13T04:51:32.269Z,6.00
2019-03-13T04:52:37.106Z,6.00
2019-03-13T04:53:42.171Z,6.00
2019-03-13T04:54:46.970Z,6.00
2019-03-13T04:55:52.713Z,6.00
2019-03-13T04:56:57.953Z,6.00
2019-03-13T04:58:02.675Z,6.00
2019-03-13T04:59:07.455Z,6.00
2019-03-13T05:00:13.201Z,5.90
2019-03-13T05:01:17.766Z,6.00
2019-03-13T05:02:22.328Z,6.00
2019-03-13T05:03:26.976Z,6.00
2019-03-13T05:04:31.756Z,5.90
2019-03-13T05:05:50.635Z,5.90
2019-03-13T05:06:55.300Z,5.90
2019-03-13T05:07:59.872Z,5.90
2019-03-13T05:09:13.441Z,5.90
2019-03-13T05:10:18.357Z,5.90
2019-03-13T05:11:23.295Z,5.90
2019-03-13T05:12:28.247Z,5.90
2019-03-13T05:13:32.805Z,5.90
2019-03-13T05:14:37.807Z,5.90
2019-03-13T05:15:42.461Z,5.80
2019-03-13T05:16:47.065Z,5.80
2019-03-13T05:17:51.627Z,5.80
2019-03-13T05:18:56.386Z,5.80
2019-03-13T05:20:01.040Z,5.80
2019-03-13T05:21:05.663Z,5.80
2019-03-13T05:22:10.238Z,5.80
2019-03-13T05:23:14.833Z,5.80
2019-03-13T05:24:19.803Z,5.80
2019-03-13T05:25:24.421Z,5.80
2019-03-13T05:26:29.411Z,5.80
2019-03-13T05:27:34.005Z,5.70
2019-03-13T05:28:38.956Z,5.70
2019-03-13T05:29:43.685Z,5.70
2019-03-13T05:30:48.433Z,5.70
2019-03-13T05:31:53.043Z,5.70
2019-03-13T05:32:57.978Z,5.60
2019-03-13T05:34:03.636Z,5.60
2019-03-13T05:35:08.301Z,5.60
2019-03-13T05:36:16.296Z,5.50
2019-03-13T05:37:19.317Z,5.50
2019-03-13T05:38:23.896Z,5.50
2019-03-13T05:39:28.661Z,5.40
2019-03-13T05:40:33.340Z,5.40
2019-03-13T05:41:43.600Z,5.40
2019-03-13T05:42:48.208Z,5.40
2019-03-13T05:43:52.799Z,5.40
2019-03-13T05:44:57.389Z,5.40
2019-03-13T05:46:02.003Z,5.30
2019-03-13T05:47:07.996Z,5.30
2019-03-13T05:48:12.586Z,5.30
2019-03-13T05:49:17.198Z,5.30
2019-03-13T05:50:21.776Z,5.30
2019-03-13T05:51:26.451Z,5.30
2019-03-13T05:52:31.024Z,5.30
2019-03-13T05:53:35.619Z,5.30
2019-03-13T05:54:40.419Z,5.30
2019-03-13T05:55:45.791Z,5.30
2019-03-13T05:56:51.007Z,5.30
2019-03-13T05:57:56.224Z,5.30
2019-03-13T05:59:01.314Z,5.30
2019-03-13T06:00:07.432Z,5.30
2019-03-13T06:01:12.020Z,5.30
2019-03-13T06:02:16.684Z,5.30
2019-03-13T06:03:21.393Z,5.30
2019-03-13T06:04:26.955Z,5.30
2019-03-13T06:05:31.571Z,5.30
2019-03-13T06:06:36.132Z,5.30
2019-03-13T06:07:40.735Z,5.20
2019-03-13T06:08:45.400Z,5.20
2019-03-13T06:09:50.054Z,5.20
2019-03-13T06:10:54.641Z,5.20
2019-03-13T06:11:59.249Z,5.20
2019-03-13T06:13:03.856Z,5.20
2019-03-13T06:14:09.557Z,5.20
2019-03-13T06:15:14.180Z,5.10
2019-03-13T06:16:18.748Z,5.10
2019-03-13T06:17:23.485Z,5.10
2019-03-13T06:18:28.087Z,5.20
2019-03-13T06:19:32.737Z,5.20
2019-03-13T06:20:37.556Z,5.20
2019-03-13T06:21:43.239Z,5.20
2019-03-13T06:22:47.795Z,5.30
2019-03-13T06:23:52.391Z,5.30
2019-03-13T06:24:57.191Z,5.40
2019-03-13T06:26:01.852Z,5.50
2019-03-13T06:27:06.487Z,5.50
2019-03-13T06:28:11.240Z,5.50
2019-03-13T06:29:15.866Z,5.60
2019-03-13T06:30:21.563Z,5.60
2019-03-13T06:31:26.169Z,5.60
2019-03-13T06:32:30.794Z,5.70
2019-03-13T06:33:35.400Z,5.70
2019-03-13T06:34:39.978Z,5.70
2019-03-13T06:35:44.671Z,5.70
2019-03-13T06:36:50.372Z,5.80
2019-03-13T06:37:55.011Z,5.80
2019-03-13T06:38:59.576Z,5.80
2019-03-13T06:40:06.767Z,5.80
2019-03-13T06:41:12.798Z,5.80
2019-03-13T06:42:17.351Z,5.80
2019-03-13T06:43:21.979Z,5.80
2019-03-13T06:44:26.598Z,5.80
2019-03-13T06:45:31.217Z,5.80
2019-03-13T06:46:35.851Z,5.80
2019-03-13T06:47:40.423Z,5.80
2019-03-13T06:48:45.019Z,5.80
2019-03-13T06:49:49.612Z,5.90
2019-03-13T06:50:54.187Z,5.80
2019-03-13T06:51:58.801Z,5.80
2019-03-13T06:53:03.365Z,5.80
2019-03-13T06:54:07.971Z,5.80
2019-03-13T06:55:12.646Z,5.80
2019-03-13T06:56:17.336Z,5.80
2019-03-13T06:57:21.980Z,5.90
2019-03-13T06:58:48.177Z,5.90
2019-03-13T07:00:20.797Z,5.90
2019-03-13T07:01:43.301Z,5.90
2019-03-13T07:03:10.943Z,5.90
2019-03-13T07:04:34.693Z,5.80
2019-03-13T07:06:05.597Z,5.90
2019-03-13T07:07:27.926Z,5.90
2019-03-13T07:08:57.719Z,6.00
2019-03-13T07:10:10.256Z,6.00
2019-03-13T07:11:25.746Z,6.00
2019-03-13T07:12:38.336Z,6.00
2019-03-13T07:14:01.589Z,6.10
2019-03-13T07:15:19.095Z,6.10
2019-03-13T07:16:41.698Z,6.10
2019-03-13T07:18:11.757Z,6.10
2019-03-13T07:19:34.160Z,6.00
2019-03-13T07:21:00.705Z,6.10
2019-03-13T07:22:15.011Z,6.10
2019-03-13T07:23:53.940Z,6.30
2019-03-13T07:25:13.128Z,6.50
2019-03-13T07:26:44.540Z,6.60
2019-03-13T07:28:11.264Z,6.70
2019-03-13T07:29:34.100Z,6.70
2019-03-13T07:30:53.236Z,6.80
2019-03-13T07:32:23.391Z,6.80
2019-03-13T07:33:40.099Z,6.80
2019-03-13T07:35:00.840Z,6.90
2019-03-13T07:36:15.881Z,6.80
2019-03-13T07:37:36.806Z,6.80
2019-03-13T07:39:14.971Z,6.80
2019-03-13T07:40:29.474Z,6.80
2019-03-13T07:41:55.506Z,6.70
2019-03-13T07:43:31.521Z,6.80
2019-03-13T07:44:46.616Z,6.90
2019-03-13T07:46:07.140Z,7.10
2019-03-13T07:47:24.204Z,7.30
2019-03-13T07:48:37.016Z,7.40
2019-03-13T07:49:59.727Z,7.40
2019-03-13T07:51:28.828Z,7.50
2019-03-13T07:52:44.695Z,7.60
2019-03-13T07:54:11.554Z,7.60
2019-03-13T07:55:29.096Z,7.70
2019-03-13T07:57:08.288Z,8.00
2019-03-13T07:58:24.181Z,8.20
2019-03-13T07:59:45.471Z,8.70
2019-03-13T08:01:08.199Z,8.80
2019-03-13T08:02:18.535Z,8.80
2019-03-13T08:03:38.767Z,8.90
2019-03-13T08:05:01.797Z,9.00
2019-03-13T08:06:30.997Z,9.00
2019-03-13T08:07:53.760Z,8.80
2019-03-13T08:09:07.526Z,8.80
2019-03-13T08:10:22.053Z,8.70
2019-03-13T08:11:35.297Z,8.60
2019-03-13T08:12:57.021Z,8.60
2019-03-13T08:14:08.309Z,8.70
2019-03-13T08:15:35.025Z,8.60
2019-03-13T08:17:07.856Z,8.50
2019-03-13T08:18:18.900Z,8.40
2019-03-13T08:19:42.978Z,8.20
2019-03-13T08:21:05.600Z,8.20
2019-03-13T08:22:32.140Z,8.30
2019-03-13T08:23:53.459Z,8.60
2019-03-13T08:25:15.884Z,9.00
2019-03-13T08:26:32.602Z,9.30
2019-03-13T08:27:59.746Z,9.50
2019-03-13T08:29:20.520Z,9.40
2019-03-13T08:30:37.082Z,9.70
2019-03-13T08:31:59.776Z,9.80
2019-03-13T08:33:29.891Z,9.90
2019-03-13T08:34:42.741Z,9.80
2019-03-13T08:36:06.490Z,9.60
2019-03-13T08:37:27.215Z,9.50
2019-03-13T08:38:54.147Z,9.30
2019-03-13T08:40:11.531Z,9.00
2019-03-13T08:41:22.713Z,8.90
2019-03-13T08:42:47.075Z,9.00
2019-03-13T08:44:11.090Z,9.00
2019-03-13T08:45:34.056Z,9.00
2019-03-13T08:47:07.064Z,8.90
2019-03-13T08:48:26.968Z,8.70
2019-03-13T08:49:49.510Z,8.70
2019-03-13T08:51:03.344Z,8.80
2019-03-13T08:52:45.667Z,8.90
2019-03-13T08:54:08.657Z,8.90
2019-03-13T08:55:22.014Z,9.00
2019-03-13T08:56:39.609Z,9.00
2019-03-13T08:57:49.249Z,9.10
2019-03-13T08:59:01.696Z,9.30
2019-03-13T09:00:21.789Z,9.20
2019-03-13T09:01:44.575Z,9.00
2019-03-13T09:02:56.674Z,9.00
2019-03-13T09:04:08.019Z,8.90
2019-03-13T09:05:30.583Z,8.80
2019-03-13T09:06:57.927Z,8.80
2019-03-13T09:08:36.828Z,8.80
2019-03-13T09:09:49.287Z,8.80
2019-03-13T09:11:11.793Z,8.80
2019-03-13T09:12:41.997Z,9.00
2019-03-13T09:13:57.459Z,9.00
2019-03-13T09:15:14.628Z,8.90
2019-03-13T09:16:45.299Z,8.80
2019-03-13T09:18:09.007Z,8.80
2019-03-13T09:19:41.460Z,8.80
2019-03-13T09:21:26.023Z,8.80
2019-03-13T09:22:49.870Z,8.90
2019-03-13T09:24:13.604Z,9.00
2019-03-13T09:25:37.319Z,9.00
2019-03-13T09:26:56.082Z,9.00
2019-03-13T09:28:19.956Z,9.00
2019-03-13T09:29:37.142Z,9.20
2019-03-13T09:31:04.491Z,9.20
2019-03-13T09:32:18.782Z,9.30
2019-03-13T09:33:30.358Z,9.40
2019-03-13T09:34:54.241Z,9.40
2019-03-13T09:36:31.201Z,9.20
2019-03-13T09:37:54.302Z,9.10
2019-03-13T09:39:10.518Z,9.10
2019-03-13T09:40:40.855Z,9.10
2019-03-13T09:41:53.862Z,9.20
2019-03-13T09:43:13.805Z,9.30
2019-03-13T09:44:52.940Z,9.30
2019-03-13T09:46:06.737Z,9.30
2019-03-13T09:47:51.997Z,9.20
2019-03-13T09:49:07.527Z,9.10
2019-03-13T09:50:43.438Z,9.10
2019-03-13T09:51:59.874Z,9.10
2019-03-13T09:53:10.980Z,9.10
2019-03-13T09:54:34.085Z,9.10
2019-03-13T09:55:54.994Z,9.10
2019-03-13T09:57:17.623Z,9.10
2019-03-13T09:58:46.159Z,9.10
2019-03-13T10:00:06.908Z,9.20
2019-03-13T10:01:21.390Z,9.30
2019-03-13T10:02:38.576Z,9.40
2019-03-13T10:04:07.987Z,9.50
2019-03-13T10:05:25.872Z,9.50
2019-03-13T10:06:40.395Z,9.50
2019-03-13T10:07:53.041Z,9.40
2019-03-13T10:09:35.499Z,9.30
2019-03-13T10:10:46.508Z,9.30
2019-03-13T10:12:14.080Z,9.50
2019-03-13T10:13:42.200Z,9.40
2019-03-13T10:15:18.453Z,9.40
2019-03-13T10:16:41.018Z,9.30
2019-03-13T10:18:03.570Z,9.20
2019-03-13T10:19:21.246Z,9.20
2019-03-13T10:20:45.181Z,9.30
2019-03-13T10:21:59.997Z,9.20
2019-03-13T10:23:23.680Z,9.20
2019-03-13T10:24:59.854Z,9.10
2019-03-13T10:26:23.580Z,9.10
2019-03-13T10:27:39.812Z,9.10
2019-03-13T10:28:53.510Z,9.10
2019-03-13T10:30:17.048Z,9.10
2019-03-13T10:31:38.533Z,9.20
2019-03-13T10:32:52.896Z,9.20
2019-03-13T10:34:19.742Z,9.20
2019-03-13T10:35:44.162Z,9.20
2019-03-13T10:37:07.552Z,9.30
2019-03-13T10:38:29.995Z,9.30
2019-03-13T10:40:00.048Z,9.30
2019-03-13T10:41:18.135Z,9.30
2019-03-13T10:42:48.042Z,9.30
2019-03-13T10:44:06.452Z,9.40
2019-03-13T10:45:20.817Z,9.40
2019-03-13T10:46:58.004Z,9.40
2019-03-13T10:48:16.808Z,9.40
2019-03-13T10:49:30.718Z,9.40
2019-03-13T10:50:57.520Z,9.40
2019-03-13T10:52:13.419Z,9.50
2019-03-13T10:53:37.147Z,9.50
2019-03-13T10:54:52.243Z,9.50
2019-03-13T10:56:16.049Z,9.60
2019-03-13T10:57:45.681Z,9.60
2019-03-13T10:58:58.809Z,9.70
2019-03-13T11:00:14.001Z,9.80
2019-03-13T11:01:40.855Z,9.80
2019-03-13T11:03:07.580Z,9.80
2019-03-13T11:04:29.966Z,9.80
2019-03-13T11:05:45.586Z,9.80
2019-03-13T11:07:00.581Z,9.80
2019-03-13T11:08:17.914Z,9.70
2019-03-13T11:09:40.444Z,9.60
2019-03-13T11:10:54.984Z,9.60
2019-03-13T11:12:30.956Z,9.60
2019-03-13T11:14:15.564Z,9.60
2019-03-13T11:15:22.000Z,9.60
2019-03-13T11:16:41.789Z,9.60
2019-03-13T11:17:54.755Z,9.70
2019-03-13T11:19:09.423Z,9.70
2019-03-13T11:20:45.419Z,9.80
2019-03-13T11:22:08.646Z,10.00
2019-03-13T11:23:50.543Z,10.00
2019-03-13T11:25:02.728Z,10.10
2019-03-13T11:26:29.479Z,10.10
2019-03-13T11:27:55.996Z,10.10
2019-03-13T11:29:15.564Z,10.10
2019-03-13T11:30:44.232Z,10.10
2019-03-13T11:31:56.865Z,10.00
2019-03-13T11:33:19.255Z,9.90
2019-03-13T11:34:47.440Z,9.90
2019-03-13T11:36:25.515Z,9.90
2019-03-13T11:38:01.161Z,9.90
2019-03-13T11:39:18.925Z,9.90
2019-03-13T11:40:52.800Z,9.90
2019-03-13T11:42:22.526Z,9.80
2019-03-13T11:43:34.035Z,9.80
2019-03-13T11:44:44.812Z,9.80
2019-03-13T11:46:16.255Z,9.80
2019-03-13T11:47:41.355Z,9.80
2019-03-13T11:48:49.780Z,9.80
2019-03-13T11:50:00.757Z,9.80
2019-03-13T11:51:25.000Z,9.90
2019-03-13T11:52:53.935Z,9.80
2019-03-13T11:54:08.232Z,9.80
2019-03-13T11:55:21.491Z,9.80
2019-03-13T11:56:45.418Z,9.90
2019-03-13T11:58:11.948Z,9.90
2019-03-13T11:59:33.831Z,9.80
2019-03-13T12:00:56.571Z,9.80
2019-03-13T12:02:19.132Z,9.80
2019-03-13T12:03:41.679Z,9.80
2019-03-13T12:05:05.614Z,9.80
2019-03-13T12:06:29.364Z,9.80
2019-03-13T12:07:52.076Z,9.70
2019-03-13T12:09:18.646Z,9.70
2019-03-13T12:10:30.542Z,9.60
2019-03-13T12:11:53.004Z,9.60
2019-03-13T12:13:17.018Z,9.60
2019-03-13T12:14:30.196Z,9.60
2019-03-13T12:15:54.127Z,9.60
2019-03-13T12:17:16.289Z,9.50
2019-03-13T12:18:38.865Z,9.60
2019-03-13T12:20:09.629Z,9.60
2019-03-13T12:21:21.786Z,9.60
2019-03-13T12:22:54.747Z,9.50
2019-03-13T12:24:20.981Z,9.50
2019-03-13T12:25:43.511Z,9.50
2019-03-13T12:26:55.068Z,9.50
2019-03-13T12:28:07.037Z,9.40
2019-03-13T12:29:25.023Z,9.40
2019-03-13T12:30:39.666Z,9.40
2019-03-13T12:31:53.939Z,9.40
2019-03-13T12:33:17.728Z,9.30
2019-03-13T12:34:28.406Z,9.40
2019-03-13T12:35:46.897Z,9.40
2019-03-13T12:37:06.805Z,9.30
2019-03-13T12:38:27.805Z,9.30
2019-03-13T12:39:57.740Z,9.20
2019-03-13T12:41:14.703Z,9.20
2019-03-13T12:42:25.408Z,9.20
2019-03-13T12:43:47.166Z,9.20
2019-03-13T12:44:59.378Z,9.20
2019-03-13T12:46:31.306Z,9.20
2019-03-13T12:47:48.068Z,9.30
2019-03-13T12:49:17.994Z,9.20
2019-03-13T12:50:34.343Z,9.30
2019-03-13T12:51:55.744Z,9.20
2019-03-13T12:53:09.072Z,9.20
2019-03-13T12:54:31.784Z,9.20
2019-03-13T12:55:52.438Z,9.30
2019-03-13T12:57:22.965Z,9.20
2019-03-13T12:58:47.493Z,9.20
2019-03-13T13:00:02.306Z,9.30
2019-03-13T13:01:25.795Z,9.20
2019-03-13T13:02:49.527Z,9.30
2019-03-13T13:04:05.184Z,9.30
2019-03-13T13:05:29.394Z,9.30
2019-03-13T13:06:51.887Z,9.30
2019-03-13T13:08:14.480Z,9.30
2019-03-13T13:09:53.619Z,9.30
2019-03-13T13:11:27.435Z,9.30
2019-03-13T13:12:46.336Z,9.20
2019-03-13T13:14:08.926Z,9.20
2019-03-13T13:15:39.463Z,9.30
2019-03-13T13:17:02.346Z,9.30
2019-03-13T13:18:14.219Z,9.30
2019-03-13T13:19:18.797Z,9.40
2019-03-13T13:20:24.204Z,9.40
2019-03-13T13:21:29.083Z,9.40
2019-03-13T13:22:33.678Z,9.40
2019-03-13T13:23:38.393Z,9.40
2019-03-13T13:24:42.981Z,9.40
2019-03-13T13:25:47.573Z,9.40
2019-03-13T13:26:53.029Z,9.50
2019-03-13T13:27:57.710Z,9.50
2019-03-13T13:29:02.289Z,9.50
2019-03-13T13:30:07.875Z,9.50
2019-03-13T13:31:12.854Z,9.50
2019-03-13T13:32:17.774Z,9.50
2019-03-13T13:33:23.839Z,9.50
2019-03-13T13:34:28.425Z,9.50
2019-03-13T13:35:33.004Z,9.50
2019-03-13T13:36:37.588Z,9.40
2019-03-13T13:37:42.280Z,9.50
2019-03-13T13:38:46.987Z,9.40
2019-03-13T13:39:51.646Z,9.50
2019-03-13T13:40:56.253Z,9.50
2019-03-13T13:42:00.845Z,9.50
2019-03-13T13:43:05.516Z,9.40
2019-03-13T13:44:10.561Z,9.40
2019-03-13T13:45:38.001Z,9.40
2019-03-13T13:46:44.572Z,9.40
2019-03-13T13:47:48.982Z,9.40
2019-03-13T13:48:53.580Z,9.40
2019-03-13T13:50:00.008Z,9.40
2019-03-13T13:51:04.491Z,9.40
2019-03-13T13:52:09.053Z,9.40
2019-03-13T13:53:13.631Z,9.40
2019-03-13T13:54:18.268Z,9.40
2019-03-13T13:55:22.840Z,9.40
2019-03-13T13:56:27.411Z,9.40
2019-03-13T13:57:32.032Z,9.50
2019-03-13T13:58:36.654Z,9.50
2019-03-13T13:59:41.245Z,9.50
2019-03-13T14:00:45.816Z,9.60
2019-03-13T14:01:50.355Z,9.60
2019-03-13T14:02:54.934Z,9.60
2019-03-13T14:04:01.678Z,9.60
2019-03-13T14:05:06.288Z,9.70
2019-03-13T14:06:10.894Z,9.70
2019-03-13T14:07:15.499Z,9.70
2019-03-13T14:08:20.100Z,9.70
2019-03-13T14:09:24.988Z,9.70
2019-03-13T14:10:29.618Z,9.70
2019-03-13T14:11:34.239Z,9.70
2019-03-13T14:12:38.885Z,9.70
2019-03-13T14:13:45.367Z,9.70
2019-03-13T14:14:50.091Z,9.70
2019-03-13T14:15:54.779Z,9.70
2019-03-13T14:16:59.503Z,9.70
2019-03-13T14:18:04.187Z,9.70
2019-03-13T14:19:08.774Z,9.60
2019-03-13T14:20:13.579Z,9.60
2019-03-13T14:21:18.411Z,9.70
2019-03-13T14:22:23.007Z,9.70
2019-03-13T14:23:27.567Z,9.60
2019-03-13T14:24:32.202Z,9.70
2019-03-13T14:25:36.872Z,9.60
2019-03-13T14:26:41.456Z,9.60
2019-03-13T14:27:46.035Z,9.60
2019-03-13T14:28:50.620Z,9.60
2019-03-13T14:29:55.183Z,9.60
2019-03-13T14:31:00.056Z,9.50
2019-03-13T14:32:04.652Z,9.50
2019-03-13T14:33:09.191Z,9.50
2019-03-13T14:34:13.814Z,9.40
2019-03-13T14:35:18.546Z,9.40
2019-03-13T14:36:24.108Z,9.40
2019-03-13T14:37:29.091Z,9.40
2019-03-13T14:38:33.666Z,9.40
2019-03-13T14:39:38.263Z,9.40
2019-03-13T14:40:43.084Z,9.40
2019-03-13T14:41:47.648Z,9.40
2019-03-13T14:42:52.291Z,9.40
2019-03-13T14:43:56.913Z,9.40
2019-03-13T14:45:01.485Z,9.50
2019-03-13T14:46:06.361Z,9.50
2019-03-13T14:47:10.947Z,9.50
2019-03-13T14:48:15.593Z,9.50
2019-03-13T14:49:20.248Z,9.50
2019-03-13T14:50:24.809Z,9.50
2019-03-13T14:51:29.382Z,9.50
2019-03-13T14:52:34.060Z,9.50
2019-03-13T14:53:38.704Z,9.60
2019-03-13T14:54:43.279Z,9.50
2019-03-13T14:55:47.944Z,9.50
2019-03-13T14:56:52.633Z,9.50
2019-03-13T14:57:57.287Z,9.50
2019-03-13T14:59:02.249Z,9.50
2019-03-13T15:00:09.905Z,9.50
2019-03-13T15:01:14.579Z,9.50
2019-03-13T15:02:19.285Z,9.50
2019-03-13T15:03:23.885Z,9.40
2019-03-13T15:04:28.447Z,9.40
2019-03-13T15:05:33.131Z,9.40
2019-03-13T15:06:38.888Z,9.40
2019-03-13T15:07:43.777Z,9.40
2019-03-13T15:08:48.391Z,9.40
2019-03-13T15:09:53.038Z,9.30
2019-03-13T15:10:57.620Z,9.30
2019-03-13T15:12:03.244Z,9.30
2019-03-13T15:13:07.828Z,9.30
2019-03-13T15:14:12.440Z,9.30
2019-03-13T15:15:17.187Z,9.30
2019-03-13T15:16:21.952Z,9.30
2019-03-13T15:17:29.616Z,9.30
2019-03-13T15:18:35.312Z,9.30
2019-03-13T15:19:39.934Z,9.30
2019-03-13T15:20:44.845Z,9.30
2019-03-13T15:21:49.691Z,9.30
2019-03-13T15:22:54.354Z,9.30
2019-03-13T15:23:58.944Z,9.30
2019-03-13T15:25:03.646Z,9.30
2019-03-13T15:26:08.427Z,9.20
2019-03-13T15:27:14.095Z,9.20
2019-03-13T15:28:18.984Z,9.20
2019-03-13T15:29:23.718Z,9.20
2019-03-13T15:30:28.425Z,9.20
2019-03-13T15:31:33.108Z,9.20
2019-03-13T15:32:37.722Z,9.20
2019-03-13T15:33:42.369Z,9.20
2019-03-13T15:34:46.989Z,9.20
2019-03-13T15:35:51.708Z,9.20
2019-03-13T15:36:56.337Z,9.10
2019-03-13T15:38:01.000Z,9.20
2019-03-13T15:39:07.559Z,9.20
2019-03-13T15:40:14.872Z,9.20
2019-03-13T15:41:19.538Z,9.20
2019-03-13T15:42:24.170Z,9.20
2019-03-13T15:43:28.821Z,9.20
2019-03-13T15:44:34.408Z,9.20
2019-03-13T15:45:40.100Z,9.20
2019-03-13T15:46:44.773Z,9.20